Time;durP1;ratioP1;P1;durP2;ratioP2;P2;SDS_P1;SDS_P2;PMS_P1;PMS_P2;Temp;Humidity;BMP_temperature;BMP_pressure;BME280_temperature;BME280_humidity;BME280_pressure;Samples;Min_cycle;Max_cycle;Signal;HPM_P1;HPM_P2
2024/02/15 00:00:40;;;;;;;4.38;1.10;;;12.40;99.90;;;;;;5052393;28;20028;-77
2024/02/15 00:03:08;;;;;;;4.05;1.10;;;12.50;99.90;;;;;;5053010;28;20025;-78
2024/02/15 00:05:37;;;;;;;1.55;1.35;;;12.50;99.90;;;;;;5051782;28;20024;-78
2024/02/15 00:08:02;;;;;;;2.90;1.10;;;12.40;99.90;;;;;;5051604;28;20028;-77
2024/02/15 00:10:28;;;;;;;1.70;0.93;;;12.40;99.90;;;;;;5051777;28;20363;-78
2024/02/15 00:12:54;;;;;;;2.42;1.23;;;12.50;99.90;;;;;;5052244;28;20036;-78
2024/02/15 00:15:19;;;;;;;1.80;1.30;;;12.40;99.90;;;;;;5051770;28;20025;-77
2024/02/15 00:17:46;;;;;;;1.70;1.00;;;12.50;99.90;;;;;;5050950;28;20032;-77
2024/02/15 00:20:13;;;;;;;3.30;1.40;;;12.40;99.90;;;;;;5051648;28;20036;-77
2024/02/15 00:22:41;;;;;;;4.47;1.10;;;12.40;99.90;;;;;;5051929;28;20032;-76
2024/02/15 00:25:08;;;;;;;2.03;1.13;;;12.40;99.90;;;;;;5051601;28;20529;-77
2024/02/15 00:27:35;;;;;;;3.58;1.67;;;12.40;99.90;;;;;;5051585;28;20025;-77
2024/02/15 00:30:01;;;;;;;5.97;1.40;;;12.40;99.90;;;;;;5050452;28;20040;-77
2024/02/15 00:32:27;;;;;;;1.88;1.20;;;12.40;99.90;;;;;;5052806;28;20029;-77
2024/02/15 00:34:53;;;;;;;2.28;1.27;;;12.40;99.90;;;;;;5051939;28;20021;-77
2024/02/15 00:37:19;;;;;;;2.88;1.30;;;12.40;99.90;;;;;;5053263;28;20393;-77
2024/02/15 00:39:45;;;;;;;4.57;1.60;;;12.40;99.90;;;;;;5054665;28;20060;-77
2024/02/15 00:42:10;;;;;;;3.58;1.35;;;12.30;99.90;;;;;;5056483;28;20102;-77
2024/02/15 00:44:37;;;;;;;2.33;1.20;;;12.30;99.90;;;;;;5055689;28;20409;-77
2024/02/15 00:47:02;;;;;;;4.10;1.33;;;12.30;99.90;;;;;;5054823;28;20452;-77
2024/02/15 00:49:28;;;;;;;3.92;1.13;;;12.30;99.90;;;;;;5056577;28;20112;-77
2024/02/15 00:51:53;;;;;;;1.98;1.17;;;12.30;99.90;;;;;;5055851;28;20446;-78
2024/02/15 00:54:19;;;;;;;4.05;1.40;;;12.30;99.90;;;;;;5055475;28;20099;-78
2024/02/15 00:56:45;;;;;;;2.35;1.38;;;12.20;99.90;;;;;;5054651;28;20036;-77
2024/02/15 00:59:10;;;;;;;3.60;1.40;;;12.20;99.90;;;;;;5056300;28;20059;-78
2024/02/15 01:01:40;;;;;;;3.85;1.30;;;12.10;99.90;;;;;;5055301;28;20055;-78
2024/02/15 01:04:06;;;;;;;2.83;1.10;;;12.10;99.90;;;;;;5056110;28;20021;-78
2024/02/15 01:06:32;;;;;;;4.68;1.10;;;12.10;99.90;;;;;;5056246;28;20454;-77
2024/02/15 01:09:01;;;;;;;3.13;1.35;;;12.10;99.90;;;;;;5055373;28;20075;-77
2024/02/15 01:11:28;;;;;;;2.78;1.50;;;12.00;99.90;;;;;;5056098;28;20076;-77
2024/02/15 01:13:54;;;;;;;3.47;1.27;;;12.00;99.90;;;;;;5054181;28;20036;-77
2024/02/15 01:16:21;;;;;;;4.72;1.73;;;12.00;99.90;;;;;;5055080;28;20025;-78
2024/02/15 01:18:47;;;;;;;3.97;1.30;;;12.00;99.90;;;;;;5054268;28;20034;-76
2024/02/15 01:21:13;;;;;;;2.65;1.55;;;12.10;99.90;;;;;;5054738;28;20025;-77
2024/02/15 01:23:39;;;;;;;3.67;1.27;;;12.10;99.90;;;;;;5054815;28;20056;-77
2024/02/15 01:26:04;;;;;;;4.63;1.30;;;12.00;99.90;;;;;;5054278;28;20086;-77
2024/02/15 01:28:30;;;;;;;2.38;1.30;;;12.10;99.90;;;;;;5054916;28;20025;-77
2024/02/15 01:30:56;;;;;;;4.10;1.25;;;12.10;99.90;;;;;;5055032;28;20449;-77
2024/02/15 01:33:22;;;;;;;3.28;1.48;;;12.10;99.90;;;;;;5054747;28;20119;-77
2024/02/15 01:35:48;;;;;;;3.38;1.30;;;12.10;99.90;;;;;;5053495;28;20028;-77
2024/02/15 01:38:14;;;;;;;4.15;1.33;;;12.10;99.90;;;;;;5055612;28;20107;-77
2024/02/15 01:40:39;;;;;;;2.03;1.20;;;12.10;99.90;;;;;;5055588;28;20060;-77
2024/02/15 01:43:05;;;;;;;9.32;1.90;;;12.20;99.90;;;;;;5053288;28;20057;-77
2024/02/15 01:45:31;;;;;;;2.88;1.20;;;12.10;99.90;;;;;;5054307;28;20367;-77
2024/02/15 01:47:56;;;;;;;5.43;1.48;;;12.10;99.90;;;;;;5053505;28;20021;-77
2024/02/15 01:50:23;;;;;;;3.35;1.40;;;12.10;99.90;;;;;;5054169;28;20064;-77
2024/02/15 01:52:53;;;;;;;2.55;1.60;;;12.20;99.90;;;;;;5053651;28;20032;-77
2024/02/15 01:55:18;;;;;;;5.20;1.48;;;12.20;99.90;;;;;;5054304;28;20025;-77
2024/02/15 01:57:47;;;;;;;5.88;1.70;;;12.20;99.90;;;;;;5054778;28;20025;-76
2024/02/15 02:00:17;;;;;;;2.67;1.25;;;12.20;99.90;;;;;;5054012;28;20029;-77
2024/02/15 02:02:44;;;;;;;2.50;1.42;;;12.20;99.90;;;;;;5053841;28;20044;-76
2024/02/15 02:05:10;;;;;;;5.72;1.67;;;12.20;99.90;;;;;;5054950;28;20025;-77
2024/02/15 02:07:37;;;;;;;3.47;1.50;;;12.20;99.90;;;;;;5053948;28;20528;-77
2024/02/15 02:10:03;;;;;;;5.18;1.60;;;12.20;99.90;;;;;;5052986;28;20025;-77
2024/02/15 02:12:30;;;;;;;3.78;1.40;;;12.20;99.90;;;;;;5055082;28;20041;-78
2024/02/15 02:14:56;;;;;;;4.35;1.25;;;12.20;99.90;;;;;;5053120;28;20112;-77
2024/02/15 02:17:21;;;;;;;2.83;1.45;;;12.20;99.90;;;;;;5053714;28;20056;-78
2024/02/15 02:19:49;;;;;;;4.80;1.67;;;12.20;99.90;;;;;;5053212;28;20079;-77
2024/02/15 02:22:17;;;;;;;3.33;1.73;;;12.20;99.90;;;;;;5054745;28;20045;-77
2024/02/15 02:25:08;;;;;;;2.55;1.50;;;12.20;99.90;;;;;;5053748;28;20021;-78
2024/02/15 02:27:34;;;;;;;4.00;1.57;;;12.20;99.90;;;;;;5053715;28;20032;-77
2024/02/15 02:30:00;;;;;;;2.72;1.42;;;12.20;99.90;;;;;;5052817;28;20032;-77
2024/02/15 02:32:26;;;;;;;4.28;1.60;;;12.20;99.90;;;;;;5053649;28;20029;-78
2024/02/15 02:34:57;;;;;;;5.07;1.63;;;12.10;99.90;;;;;;5053973;28;20029;-77
2024/02/15 02:37:24;;;;;;;4.28;1.30;;;12.20;99.90;;;;;;5053397;28;20078;-77
2024/02/15 02:39:50;;;;;;;2.42;1.50;;;12.10;99.90;;;;;;5052685;28;20025;-76
2024/02/15 02:42:15;;;;;;;4.07;1.73;;;12.10;99.90;;;;;;5054177;28;20059;-76
2024/02/15 02:44:41;;;;;;;3.10;1.70;;;12.10;99.90;;;;;;5052556;28;20489;-77
2024/02/15 02:47:06;;;;;;;4.82;1.60;;;12.10;99.90;;;;;;5052260;28;20085;-77
2024/02/15 02:49:32;;;;;;;4.72;1.55;;;12.10;99.90;;;;;;5053093;28;20025;-78
2024/02/15 02:51:58;;;;;;;4.57;1.35;;;12.10;99.90;;;;;;5052546;28;20040;-78
2024/02/15 02:54:23;;;;;;;4.78;1.60;;;12.10;99.90;;;;;;5052917;28;20028;-78
2024/02/15 02:56:49;;;;;;;3.03;1.90;;;12.10;99.90;;;;;;5052000;28;20481;-77
2024/02/15 02:59:16;;;;;;;4.05;1.52;;;12.10;99.90;;;;;;5053556;28;20057;-78
2024/02/15 03:01:42;;;;;;;5.00;1.50;;;12.10;99.90;;;;;;5052818;28;20119;-78
2024/02/15 03:04:08;;;;;;;2.95;1.48;;;12.10;99.90;;;;;;5051978;28;20343;-77
2024/02/15 03:06:34;;;;;;;2.83;1.55;;;12.00;99.90;;;;;;5053567;28;20025;-78
2024/02/15 03:08:59;;;;;;;3.67;1.73;;;12.00;99.90;;;;;;5052063;28;20051;-77
2024/02/15 03:11:25;;;;;;;5.20;1.65;;;12.10;99.90;;;;;;5052550;28;20482;-78
2024/02/15 03:13:51;;;;;;;4.18;1.42;;;12.00;99.90;;;;;;5051952;28;20044;-77
2024/02/15 03:16:16;;;;;;;2.40;1.25;;;12.10;99.90;;;;;;5053807;28;20490;-77
2024/02/15 03:18:43;;;;;;;3.75;1.40;;;12.00;99.90;;;;;;5053587;28;20087;-77
2024/02/15 03:21:10;;;;;;;3.25;1.35;;;12.10;99.90;;;;;;5051505;28;20673;-77
2024/02/15 03:23:39;;;;;;;3.65;1.30;;;12.00;99.90;;;;;;5052274;28;20052;-77
2024/02/15 03:26:08;;;;;;;3.70;1.40;;;12.10;99.90;;;;;;5052464;28;20031;-77
2024/02/15 03:28:36;;;;;;;4.70;1.58;;;12.10;99.90;;;;;;5053245;28;20032;-76
2024/02/15 03:31:02;;;;;;;2.88;1.23;;;12.10;99.90;;;;;;5051055;28;20029;-77
2024/02/15 03:33:32;;;;;;;2.60;1.30;;;12.10;99.90;;;;;;5051886;28;20478;-77
2024/02/15 03:36:00;;;;;;;2.30;1.20;;;12.10;99.90;;;;;;5051259;28;20024;-76
2024/02/15 03:38:29;;;;;;;3.70;1.20;;;12.10;99.90;;;;;;5052795;28;20466;-76
2024/02/15 03:40:58;;;;;;;2.55;1.30;;;12.10;99.90;;;;;;5050691;28;20037;-76
2024/02/15 03:43:23;;;;;;;3.50;1.20;;;12.10;99.90;;;;;;5051484;28;20052;-77
2024/02/15 03:45:50;;;;;;;4.35;1.60;;;12.00;99.90;;;;;;5051553;28;20028;-75
2024/02/15 03:48:15;;;;;;;4.95;1.50;;;12.00;99.90;;;;;;5051473;28;20116;-76
2024/02/15 03:50:41;;;;;;;3.00;1.50;;;12.00;99.90;;;;;;5052762;28;20159;-76
2024/02/15 03:53:09;;;;;;;3.70;1.70;;;12.10;99.90;;;;;;5052084;28;20021;-77
2024/02/15 03:55:36;;;;;;;2.15;1.50;;;12.00;99.90;;;;;;5051523;28;20020;-76
2024/02/15 03:58:01;;;;;;;4.35;1.23;;;12.10;99.90;;;;;;5050753;28;20462;-77
2024/02/15 04:00:27;;;;;;;3.85;1.90;;;12.00;99.90;;;;;;5051559;28;20032;-77
2024/02/15 04:02:53;;;;;;;2.15;1.38;;;12.00;99.90;;;;;;5050571;28;20021;-76
2024/02/15 04:05:20;;;;;;;4.55;1.20;;;12.00;99.90;;;;;;5052518;28;20420;-76
2024/02/15 04:07:46;;;;;;;3.15;1.38;;;12.00;99.90;;;;;;5051315;28;20029;-77
2024/02/15 04:10:12;;;;;;;4.15;1.50;;;12.00;99.90;;;;;;5050436;28;20017;-76
2024/02/15 04:12:37;;;;;;;6.22;1.55;;;12.00;99.90;;;;;;5050261;28;20037;-77
2024/02/15 04:15:11;;;;;;;2.85;1.58;;;12.00;99.90;;;;;;5050295;28;20407;-79
2024/02/15 04:17:40;;;;;;;3.60;1.70;;;12.00;99.90;;;;;;5052450;28;20056;-76
2024/02/15 04:20:07;;;;;;;3.28;1.48;;;12.00;99.90;;;;;;5051625;28;20029;-76
2024/02/15 04:22:36;;;;;;;5.22;1.60;;;11.90;99.90;;;;;;5052634;28;20440;-76
2024/02/15 04:25:06;;;;;;;3.92;1.50;;;12.00;99.90;;;;;;5051589;28;20074;-77
2024/02/15 04:27:32;;;;;;;3.40;1.42;;;11.90;99.90;;;;;;5052523;28;20021;-77
2024/02/15 04:29:59;;;;;;;3.92;1.63;;;11.90;99.90;;;;;;5050286;28;20018;-77
2024/02/15 04:32:24;;;;;;;3.88;1.55;;;11.90;99.90;;;;;;5052649;28;20075;-77
2024/02/15 04:34:51;;;;;;;3.95;1.77;;;11.90;99.90;;;;;;5051364;28;20079;-78
2024/02/15 04:37:17;;;;;;;3.65;1.73;;;11.90;99.90;;;;;;5050391;28;20029;-77
2024/02/15 04:39:43;;;;;;;5.82;1.65;;;11.90;99.90;;;;;;5051372;28;20026;-77
2024/02/15 04:42:11;;;;;;;3.25;1.70;;;11.80;99.90;;;;;;5051261;28;20501;-77
2024/02/15 04:44:39;;;;;;;2.97;1.77;;;11.80;99.90;;;;;;5052663;28;20116;-77
2024/02/15 04:47:05;;;;;;;4.32;1.60;;;11.80;99.90;;;;;;5050652;28;20470;-77
2024/02/15 04:49:31;;;;;;;4.05;2.05;;;11.80;99.90;;;;;;5051207;28;20083;-77
2024/02/15 04:51:57;;;;;;;4.15;1.80;;;11.80;99.90;;;;;;5050504;28;20065;-76
2024/02/15 04:54:23;;;;;;;5.85;1.60;;;11.80;99.90;;;;;;5051396;28;20091;-77
2024/02/15 04:56:52;;;;;;;2.08;1.50;;;11.80;99.90;;;;;;5052453;28;20056;-77
2024/02/15 04:59:19;;;;;;;2.90;1.73;;;11.80;99.90;;;;;;5050930;28;20029;-77
2024/02/15 05:01:45;;;;;;;3.30;1.73;;;11.80;99.90;;;;;;5051250;28;20466;-77
2024/02/15 05:04:11;;;;;;;2.75;1.25;;;11.80;99.90;;;;;;5051493;28;20036;-77
2024/02/15 05:06:37;;;;;;;3.63;1.30;;;11.80;99.90;;;;;;5050878;28;20488;-77
2024/02/15 05:09:07;;;;;;;3.28;1.45;;;11.70;99.90;;;;;;5050333;28;20021;-77
2024/02/15 05:11:36;;;;;;;2.35;1.60;;;11.70;99.90;;;;;;5052195;28;20033;-77
2024/02/15 05:14:07;;;;;;;2.55;1.73;;;11.70;99.90;;;;;;5051391;28;20029;-77
2024/02/15 05:16:33;;;;;;;4.85;1.73;;;11.70;99.90;;;;;;5052214;28;20450;-78
2024/02/15 05:18:59;;;;;;;4.78;1.60;;;11.70;99.90;;;;;;5051130;28;20470;-78
2024/02/15 05:21:25;;;;;;;2.78;1.23;;;11.70;99.90;;;;;;5051210;28;20032;-79
2024/02/15 05:23:52;;;;;;;3.22;1.45;;;11.70;99.90;;;;;;5053749;28;20120;-78
2024/02/15 05:26:23;;;;;;;5.28;1.55;;;11.70;99.90;;;;;;5053755;28;20025;-79
2024/02/15 05:28:49;;;;;;;2.85;1.40;;;11.70;99.90;;;;;;5054499;28;20103;-79
2024/02/15 05:31:17;;;;;;;3.22;1.30;;;11.70;99.90;;;;;;5053954;28;20036;-79
2024/02/15 05:33:53;;;;;;;5.35;1.40;;;11.70;99.90;;;;;;5054157;28;20025;-79
2024/02/15 05:36:20;;;;;;;4.25;1.20;;;11.70;99.90;;;;;;5053800;28;20020;-78
2024/02/15 05:38:48;;;;;;;3.50;1.50;;;11.70;99.90;;;;;;5055865;28;20029;-79
2024/02/15 05:41:13;;;;;;;8.23;1.65;;;11.70;99.90;;;;;;5053628;28;20390;-79
2024/02/15 05:43:41;;;;;;;4.10;1.30;;;11.70;99.90;;;;;;5054032;28;20049;-78
2024/02/15 05:46:08;;;;;;;5.60;1.38;;;11.60;99.90;;;;;;5053404;28;20433;-79
2024/02/15 05:48:37;;;;;;;5.57;1.45;;;11.60;99.90;;;;;;5055451;28;20025;-78
2024/02/15 05:51:07;;;;;;;5.40;1.45;;;11.60;99.90;;;;;;5053265;28;20029;-79
2024/02/15 05:53:36;;;;;;;3.80;1.50;;;11.60;99.90;;;;;;5054329;28;20033;-79
2024/02/15 05:56:04;;;;;;;4.90;1.77;;;11.60;99.90;;;;;;5053179;28;20362;-78
2024/02/15 05:58:30;;;;;;;5.65;1.35;;;11.60;99.90;;;;;;5055474;28;20025;-79
2024/02/15 06:01:01;;;;;;;3.78;1.40;;;11.60;99.90;;;;;;5055025;28;20029;-78
2024/02/15 06:03:29;;;;;;;3.05;1.80;;;11.60;99.90;;;;;;5054061;28;20025;-78
2024/02/15 06:05:58;;;;;;;5.70;1.58;;;11.60;99.90;;;;;;5055087;28;20025;-78
2024/02/15 06:08:27;;;;;;;4.03;1.55;;;11.60;99.90;;;;;;5054479;28;20032;-78
2024/02/15 06:10:53;;;;;;;3.40;1.40;;;11.60;99.90;;;;;;5053717;28;20067;-78
2024/02/15 06:13:22;;;;;;;4.90;1.73;;;11.60;99.90;;;;;;5052574;28;20175;-78
2024/02/15 06:15:52;;;;;;;2.72;1.55;;;11.60;99.90;;;;;;5054616;28;20505;-78
2024/02/15 06:18:24;;;;;;;3.80;1.77;;;11.50;99.90;;;;;;5052884;28;20155;-78
2024/02/15 06:20:51;;;;;;;5.10;1.58;;;11.50;99.90;;;;;;5054715;28;20029;-79
2024/02/15 06:23:18;;;;;;;3.40;1.73;;;11.60;99.90;;;;;;5053119;28;20025;-79
2024/02/15 06:25:50;;;;;;;5.43;1.80;;;11.50;99.90;;;;;;5053612;28;20021;-79
2024/02/15 06:41:56;;;;;;;2.33;1.25;;;11.50;99.90;;;;;;5054324;28;20035;-78
2024/02/15 06:44:23;;;;;;;5.00;1.42;;;11.50;99.90;;;;;;5058397;28;20120;-82
2024/02/15 06:46:50;;;;;;;3.70;1.35;;;11.50;99.90;;;;;;5053909;28;20060;-82
2024/02/15 06:49:16;;;;;;;2.97;1.17;;;11.40;99.90;;;;;;5053435;28;20029;-84
2024/02/15 06:51:42;;;;;;;1.85;1.30;;;11.40;99.90;;;;;;5053098;28;20032;-80
2024/02/15 06:54:07;;;;;;;3.38;1.23;;;11.40;99.90;;;;;;5052542;28;20033;-79
2024/02/15 06:56:37;;;;;;;2.30;1.13;;;11.40;99.90;;;;;;5053475;28;20029;-80
2024/02/15 06:59:03;;;;;;;2.88;1.27;;;11.40;99.90;;;;;;5053727;28;20021;-79
2024/02/15 07:01:28;;;;;;;3.05;1.13;;;11.30;99.90;;;;;;5054472;28;20040;-80
2024/02/15 07:03:55;;;;;;;3.70;1.42;;;11.30;99.90;;;;;;5054758;28;20096;-82
2024/02/15 07:06:21;;;;;;;3.03;1.50;;;11.30;99.90;;;;;;5054241;28;20016;-81
2024/02/15 07:08:50;;;;;;;4.35;1.70;;;11.30;99.90;;;;;;5053548;28;20083;-81
2024/02/15 07:11:16;;;;;;;4.15;1.33;;;11.30;99.90;;;;;;5053089;28;20039;-81
2024/02/15 07:13:41;;;;;;;1.95;1.10;;;11.30;99.90;;;;;;5054712;28;20060;-81
2024/02/15 07:16:08;;;;;;;5.93;1.40;;;11.30;99.90;;;;;;5053805;28;20037;-80
2024/02/15 07:18:33;;;;;;;4.00;1.65;;;11.40;99.90;;;;;;5053580;28;20021;-81
2024/02/15 07:21:01;;;;;;;3.83;1.35;;;11.40;99.90;;;;;;5069754;28;20029;-79
2024/02/15 07:23:27;;;;;;;3.22;1.67;;;11.30;99.90;;;;;;5053290;28;20063;-81
2024/02/15 07:25:53;;;;;;;4.25;1.38;;;11.30;99.90;;;;;;5054403;28;20048;-81
2024/02/15 07:28:20;;;;;;;1.70;1.00;;;11.30;99.90;;;;;;5069552;28;20120;-81
2024/02/15 07:30:48;;;;;;;4.85;1.40;;;11.30;99.90;;;;;;5069878;28;20087;-81
2024/02/15 07:33:14;;;;;;;5.13;1.42;;;11.30;99.90;;;;;;5053356;28;20094;-81
2024/02/15 07:35:43;;;;;;;3.63;1.42;;;11.40;99.90;;;;;;5069595;28;20060;-81
2024/02/15 07:38:08;;;;;;;4.15;1.15;;;11.40;99.90;;;;;;5053767;28;20025;-79
2024/02/15 07:40:34;;;;;;;2.45;1.02;;;11.40;99.90;;;;;;5054170;28;20515;-79
2024/02/15 07:42:59;;;;;;;4.25;1.20;;;11.40;99.90;;;;;;5069203;28;20048;-79
2024/02/15 07:45:25;;;;;;;6.95;1.10;;;11.40;99.90;;;;;;5069310;28;20124;-79
2024/02/15 07:47:50;;;;;;;3.35;1.05;;;11.50;99.90;;;;;;5069514;28;20469;-79
2024/02/15 07:50:22;;;;;;;4.03;1.13;;;11.40;99.90;;;;;;5069279;28;20036;-82
2024/02/15 07:52:49;;;;;;;4.88;1.30;;;11.40;99.90;;;;;;5054222;28;20025;-82
2024/02/15 07:55:14;;;;;;;4.05;1.30;;;11.40;99.90;;;;;;5068970;28;20033;-81
2024/02/15 07:57:40;;;;;;;4.78;1.50;;;11.40;99.90;;;;;;5069372;28;20115;-81
2024/02/15 08:00:10;;;;;;;4.22;1.50;;;11.40;99.90;;;;;;5052032;28;20029;-81
2024/02/15 08:02:40;;;;;;;3.75;1.27;;;11.40;99.90;;;;;;5069463;28;20021;-81
2024/02/15 08:05:09;;;;;;;3.85;1.58;;;11.40;99.90;;;;;;5068744;28;20458;-81
2024/02/15 08:07:37;;;;;;;2.80;1.40;;;11.40;99.90;;;;;;5053691;28;20374;-81
2024/02/15 08:10:03;;;;;;;3.03;1.55;;;11.40;99.90;;;;;;5068878;28;20533;-78
2024/02/15 08:12:30;;;;;;;4.45;1.50;;;11.40;99.90;;;;;;5052723;28;20044;-82
2024/02/15 08:14:55;;;;;;;6.53;1.50;;;11.40;99.90;;;;;;5052462;28;20064;-81
2024/02/15 08:17:21;;;;;;;5.32;1.80;;;11.40;99.90;;;;;;5068617;28;20033;-82
2024/02/15 08:19:46;;;;;;;4.35;1.60;;;11.40;99.90;;;;;;5069192;28;20025;-82
2024/02/15 08:22:12;;;;;;;6.18;1.70;;;11.50;99.90;;;;;;5053136;28;20036;-83
2024/02/15 08:24:37;;;;;;;6.18;1.73;;;11.50;99.90;;;;;;5052624;28;20389;-83
2024/02/15 08:27:04;;;;;;;3.05;1.35;;;11.50;99.90;;;;;;5052278;28;20052;-79
2024/02/15 08:29:30;;;;;;;2.85;1.80;;;11.50;99.90;;;;;;5069342;28;20116;-83
2024/02/15 08:31:55;;;;;;;4.97;2.20;;;11.50;99.90;;;;;;5068984;28;20178;-82
2024/02/15 08:34:21;;;;;;;5.93;1.65;;;11.50;99.90;;;;;;5068506;28;20033;-80
2024/02/15 08:36:48;;;;;;;4.63;1.90;;;11.60;99.90;;;;;;5053590;28;20071;-82
2024/02/15 08:39:16;;;;;;;4.95;1.70;;;11.60;99.90;;;;;;5052978;28;20518;-82
2024/02/15 08:41:42;;;;;;;5.95;1.80;;;11.60;99.90;;;;;;5068545;28;20035;-82
2024/02/15 08:44:11;;;;;;;3.13;1.70;;;11.60;99.90;;;;;;5051872;28;20116;-82
2024/02/15 08:46:37;;;;;;;3.75;1.50;;;11.70;99.90;;;;;;5051909;28;20027;-82
2024/02/15 08:49:03;;;;;;;6.18;1.63;;;11.70;99.90;;;;;;5052324;28;20025;-82
2024/02/15 08:51:32;;;;;;;5.30;1.95;;;11.80;99.90;;;;;;5052532;28;20363;-82
2024/02/15 08:53:59;;;;;;;4.30;1.58;;;11.80;99.90;;;;;;5069113;28;20492;-82
2024/02/15 08:56:25;;;;;;;3.75;1.73;;;11.80;99.90;;;;;;5052802;28;20210;-82
2024/02/15 08:58:51;;;;;;;4.93;1.65;;;11.80;99.90;;;;;;5055118;28;20119;-82
2024/02/15 09:01:16;;;;;;;3.63;1.70;;;11.90;99.90;;;;;;5072178;28;20036;-82
2024/02/15 09:03:42;;;;;;;3.72;1.85;;;11.90;99.90;;;;;;5072916;28;20021;-82
2024/02/15 09:06:08;;;;;;;3.72;1.63;;;11.90;99.90;;;;;;5056493;28;20031;-82
2024/02/15 09:08:34;;;;;;;6.90;1.98;;;11.90;99.90;;;;;;5057001;28;20112;-81
2024/02/15 09:10:59;;;;;;;4.50;1.92;;;12.00;99.90;;;;;;5055774;28;20386;-81
2024/02/15 09:13:25;;;;;;;3.65;1.60;;;12.00;99.90;;;;;;5071182;28;20037;-81
2024/02/15 09:15:51;;;;;;;2.80;1.90;;;12.00;99.90;;;;;;5072510;28;20033;-80
2024/02/15 09:18:22;;;;;;;9.00;2.40;;;12.10;99.90;;;;;;5054988;28;20035;-81
2024/02/15 09:20:48;;;;;;;6.53;1.95;;;12.10;99.90;;;;;;5055833;28;20029;-81
2024/02/15 09:23:14;;;;;;;6.18;2.17;;;12.10;99.90;;;;;;5056124;28;20056;-81
2024/02/15 09:25:42;;;;;;;5.00;2.10;;;12.20;99.90;;;;;;5056630;28;20477;-81
2024/02/15 09:28:08;;;;;;;6.18;1.80;;;12.20;99.90;;;;;;5071580;28;20032;-79
2024/02/15 09:30:35;;;;;;;4.93;1.60;;;12.30;99.90;;;;;;5056541;28;20025;-80
2024/02/15 09:33:04;;;;;;;4.78;1.73;;;12.30;99.90;;;;;;5055268;28;20123;-81
2024/02/15 09:35:30;;;;;;;5.43;1.52;;;12.30;99.90;;;;;;5055831;28;20032;-82
2024/02/15 09:37:56;;;;;;;5.63;1.50;;;12.30;99.90;;;;;;5056423;28;20029;-82
2024/02/15 09:40:25;;;;;;;4.25;1.70;;;12.40;99.90;;;;;;5071506;28;20063;-82
2024/02/15 09:42:52;;;;;;;3.67;1.30;;;12.40;99.90;;;;;;5056534;28;20072;-82
2024/02/15 09:45:20;;;;;;;3.95;1.55;;;12.50;99.90;;;;;;5071426;28;20033;-81
2024/02/15 09:47:48;;;;;;;3.40;1.30;;;12.50;99.90;;;;;;5072288;28;20025;-82
2024/02/15 09:50:16;;;;;;;3.47;1.45;;;12.50;99.90;;;;;;5055582;28;20017;-81
2024/02/15 09:52:46;;;;;;;3.95;1.35;;;12.60;99.90;;;;;;5056185;28;20096;-82
2024/02/15 09:55:14;;;;;;;3.67;1.58;;;12.60;99.90;;;;;;5054471;28;20031;-81
2024/02/15 09:57:44;;;;;;;3.90;1.40;;;12.70;99.90;;;;;;5056128;28;20033;-82
2024/02/15 10:00:15;;;;;;;4.80;1.73;;;12.80;99.90;;;;;;5071174;28;20035;-81
2024/02/15 10:02:44;;;;;;;8.48;1.85;;;12.80;99.90;;;;;;5056087;28;20021;-81
2024/02/15 10:05:13;;;;;;;3.80;1.33;;;12.90;99.90;;;;;;5055664;28;20101;-79
2024/02/15 10:07:46;;;;;;;6.88;2.13;;;13.00;99.90;;;;;;5071441;28;20059;-82
2024/02/15 10:10:16;;;;;;;3.50;1.63;;;13.10;99.90;;;;;;5069625;28;20029;-81
2024/02/15 10:12:43;;;;;;;5.30;1.65;;;13.10;99.90;;;;;;5071230;28;20029;-82
2024/02/15 10:15:09;;;;;;;5.95;1.45;;;13.20;99.90;;;;;;5071445;28;20432;-81
2024/02/15 10:17:36;;;;;;;3.03;1.70;;;13.30;99.90;;;;;;5070899;28;20017;-81
2024/02/15 10:20:05;;;;;;;3.45;1.45;;;13.30;99.90;;;;;;5071097;28;20083;-81
2024/02/15 10:22:31;;;;;;;4.63;1.17;;;13.40;99.90;;;;;;5070309;28;20037;-80
2024/02/15 10:25:13;;;;;;;3.25;1.20;;;13.50;99.90;;;;;;5054514;28;20025;-81
2024/02/15 10:27:40;;;;;;;4.05;1.05;;;13.50;99.90;;;;;;5071201;28;20531;-81
2024/02/15 10:30:17;;;;;;;6.43;1.38;;;13.50;99.90;;;;;;5055213;28;20482;-81
2024/02/15 10:32:44;;;;;;;1.30;0.90;;;13.60;99.90;;;;;;5070569;28;20033;-80
2024/02/15 10:35:15;;;;;;;1.48;1.05;;;13.70;99.90;;;;;;5070864;28;20036;-81
2024/02/15 10:37:42;;;;;;;4.53;1.43;;;13.70;99.90;;;;;;5070875;28;20021;-80
2024/02/15 10:40:07;;;;;;;3.30;1.10;;;13.70;99.90;;;;;;5070752;28;20021;-80
2024/02/15 10:42:34;;;;;;;4.20;1.25;;;13.70;99.90;;;;;;5054255;28;20132;-81
2024/02/15 10:45:04;;;;;;;4.22;1.20;;;13.80;99.90;;;;;;5070478;28;20078;-81
2024/02/15 10:47:30;;;;;;;4.05;1.58;;;13.90;99.90;;;;;;5070078;28;20071;-80
2024/02/15 10:49:57;;;;;;;3.17;1.20;;;14.00;99.90;;;;;;5070591;28;20466;-80
2024/02/15 10:52:30;;;;;;;3.83;1.23;;;14.00;99.90;;;;;;5054347;28;20043;-78
2024/02/15 10:55:04;;;;;;;6.38;1.50;;;14.10;99.90;;;;;;5053898;28;20036;-78
2024/02/15 10:57:32;;;;;;;3.58;1.20;;;14.10;99.90;;;;;;5054172;28;20032;-78
2024/02/15 11:00:14;;;;;;;2.92;1.20;;;14.20;99.90;;;;;;5070173;28;20088;-78
2024/02/15 11:03:07;;;;;;;3.10;1.20;;;14.30;99.90;;;;;;5069927;28;20048;-78
2024/02/15 11:05:34;;;;;;;3.20;1.10;;;14.30;99.90;;;;;;5069606;28;20412;-78
2024/02/15 11:08:06;;;;;;;2.35;1.17;;;14.40;99.90;;;;;;5070072;28;20032;-78
2024/02/15 11:10:32;;;;;;;6.47;2.13;;;14.40;99.90;;;;;;5053807;28;20352;-79
2024/02/15 11:12:59;;;;;;;4.47;1.40;;;14.60;99.90;;;;;;5054220;28;20033;-79
2024/02/15 11:15:46;;;;;;;4.55;1.20;;;14.60;99.90;;;;;;5069143;28;20061;-80
2024/02/15 11:18:12;;;;;;;5.07;1.60;;;14.70;99.90;;;;;;5053406;28;20359;-81
2024/02/15 11:20:38;;;;;;;8.00;4.15;;;14.60;99.90;;;;;;5069203;28;20040;-81
2024/02/15 11:23:04;;;;;;;3.47;1.65;;;14.70;99.90;;;;;;5054537;28;20115;-81
2024/02/15 11:25:38;;;;;;;5.35;2.72;;;14.70;99.90;;;;;;5053684;28;20489;-82
2024/02/15 11:28:27;;;;;;;4.63;1.50;;;14.80;99.90;;;;;;5069856;28;20029;-81
2024/02/15 11:30:53;;;;;;;5.57;1.52;;;14.80;99.90;;;;;;5069908;28;20527;-81
2024/02/15 11:33:31;;;;;;;2.75;1.30;;;14.90;99.90;;;;;;5069283;28;20033;-83
2024/02/15 11:36:06;;;;;;;4.78;0.80;;;14.90;99.90;;;;;;5053116;28;20021;-82
2024/02/15 11:38:32;;;;;;;3.13;0.98;;;14.90;99.90;;;;;;5069201;28;20060;-81
2024/02/15 11:41:05;;;;;;;3.33;0.77;;;15.00;99.90;;;;;;5054048;28;20060;-81
2024/02/15 11:43:49;;;;;;;1.40;0.75;;;15.00;99.90;;;;;;5053606;28;20075;-81
2024/02/15 11:46:18;;;;;;;3.10;0.95;;;15.00;99.90;;;;;;5069656;28;20478;-81
2024/02/15 11:48:44;;;;;;;3.78;0.80;;;15.10;99.90;;;;;;5053918;28;20087;-81
2024/02/15 11:51:11;;;;;;;2.83;0.80;;;15.10;99.90;;;;;;5052657;28;20063;-81
2024/02/15 11:53:37;;;;;;;1.60;1.05;;;15.10;99.90;;;;;;5052336;28;20037;-81
2024/02/15 11:56:08;;;;;;;2.63;0.88;;;15.10;99.90;;;;;;5054124;28;20082;-81
2024/02/15 11:58:52;;;;;;;3.13;0.85;;;15.20;99.90;;;;;;5053463;28;20024;-81
2024/02/15 12:20:31;;;;;;;1.92;0.70;;;15.50;99.90;;;;;;5052885;28;20040;-81
2024/02/15 12:23:00;;;;;;;4.32;1.10;;;15.50;99.90;;;;;;5053422;28;20087;-81
2024/02/15 12:25:27;;;;;;;3.53;0.90;;;15.50;99.90;;;;;;5068513;28;20021;-81
2024/02/15 12:27:56;;;;;;;2.22;0.80;;;15.60;99.90;;;;;;5069176;28;20029;-81
2024/02/15 12:30:22;;;;;;;1.73;0.80;;;15.60;99.90;;;;;;5068288;28;20036;-81
2024/02/15 12:32:50;;;;;;;2.35;0.77;;;15.60;99.90;;;;;;5053666;28;20087;-81
2024/02/15 12:35:20;;;;;;;2.65;0.70;;;15.70;99.90;;;;;;5057485;28;20025;-81
2024/02/15 12:38:05;;;;;;;1.30;0.80;;;15.80;99.90;;;;;;5073309;28;20025;-80
2024/02/15 12:40:32;;;;;;;1.70;0.80;;;15.90;99.90;;;;;;5072713;28;20047;-81
2024/02/15 12:42:59;;;;;;;4.30;1.00;;;16.00;99.90;;;;;;5072920;28;20041;-82
2024/02/15 12:45:29;;;;;;;2.33;0.95;;;16.10;99.90;;;;;;5072370;28;20492;-80
2024/02/15 12:47:55;;;;;;;3.95;0.80;;;16.10;99.90;;;;;;5072917;28;20029;-81
2024/02/15 12:50:31;;;;;;;1.33;0.75;;;16.10;99.90;;;;;;5072518;28;20033;-80
2024/02/15 12:53:05;;;;;;;2.40;0.77;;;16.10;99.90;;;;;;5057405;28;20025;-81
2024/02/15 12:55:36;;;;;;;2.38;0.75;;;16.20;99.90;;;;;;5055778;28;20032;-81
2024/02/15 12:58:14;;;;;;;5.10;1.02;;;16.20;99.90;;;;;;5072723;28;20473;-81
2024/02/15 13:00:40;;;;;;;1.95;0.70;;;16.20;99.90;;;;;;5055573;28;20040;-80
2024/02/15 13:03:10;;;;;;;2.63;0.70;;;16.20;99.90;;;;;;5056955;28;20032;-80
2024/02/15 13:05:37;;;;;;;2.55;0.82;;;16.20;99.90;;;;;;5055468;28;20025;-81
2024/02/15 13:08:10;;;;;;;4.30;0.88;;;16.20;99.90;;;;;;5072521;28;20025;-82
2024/02/15 13:10:36;;;;;;;2.95;0.80;;;16.20;99.90;;;;;;5056472;28;20028;-82
2024/02/15 13:13:02;;;;;;;2.85;1.08;;;16.20;99.90;;;;;;5055804;28;20036;-82
2024/02/15 13:15:32;;;;;;;3.75;0.93;;;16.20;99.90;;;;;;5072025;28;20040;-82
2024/02/15 13:17:59;;;;;;;2.22;0.70;;;16.20;99.90;;;;;;5056849;28;20078;-81
2024/02/15 13:20:35;;;;;;;1.75;0.90;;;16.30;99.90;;;;;;5072019;28;20051;-82
2024/02/15 13:23:25;;;;;;;4.50;0.70;;;16.30;99.90;;;;;;5055963;28;20116;-82